createdAt,value
2019-01-16T00:01:33.684Z,1.57
2019-01-16T00:04:13.900Z,1.40
2019-01-16T00:07:07.722Z,1.30
2019-01-16T00:09:46.547Z,1.30
2019-01-16T00:12:34.914Z,1.40
2019-01-16T00:15:34.862Z,1.53
2019-01-16T00:18:29.427Z,0.93
2019-01-16T00:21:26.751Z,1.00
2019-01-16T00:24:33.473Z,1.77
2019-01-16T00:27:31.325Z,2.60
2019-01-16T00:30:19.680Z,1.10
2019-01-16T00:33:10.830Z,1.03
2019-01-16T00:35:52.683Z,1.33
2019-01-16T00:38:30.285Z,1.60
2019-01-16T00:41:07.931Z,1.30
2019-01-16T00:43:59.124Z,1.10
2019-01-16T00:46:50.307Z,1.20
2019-01-16T00:49:44.286Z,1.30
2019-01-16T00:52:35.403Z,1.30
2019-01-16T00:55:23.975Z,1.20
2019-01-16T00:58:11.163Z,1.57
2019-01-16T01:01:13.121Z,1.50
2019-01-16T01:04:01.514Z,1.33
2019-01-16T01:06:50.441Z,1.50
2019-01-16T01:09:46.871Z,1.80
2019-01-16T01:12:37.766Z,1.90
2019-01-16T01:15:30.226Z,2.33
2019-01-16T01:18:08.049Z,2.50
2019-01-16T01:20:59.197Z,2.10
2019-01-16T01:23:36.661Z,2.93
2019-01-16T01:26:29.895Z,2.63
2019-01-16T01:29:24.312Z,2.73
2019-01-16T01:32:13.136Z,3.10
2019-01-16T01:34:51.367Z,3.60
2019-01-16T01:37:39.589Z,2.67
2019-01-16T01:40:31.851Z,3.10
2019-01-16T01:43:10.551Z,3.10
2019-01-16T01:46:01.990Z,2.50
2019-01-16T01:48:56.153Z,2.90
2019-01-16T01:51:47.052Z,2.30
2019-01-16T01:54:31.724Z,2.17
2019-01-16T01:57:19.723Z,1.80
2019-01-16T02:00:11.940Z,2.17
2019-01-16T02:02:53.302Z,1.80
2019-01-16T02:05:36.174Z,2.10
2019-01-16T02:08:21.650Z,2.20
2019-01-16T02:11:08.626Z,3.00
2019-01-16T02:13:59.583Z,3.37
2019-01-16T02:16:47.898Z,4.07
2019-01-16T02:19:38.984Z,6.93
2019-01-16T02:22:32.970Z,8.50
2019-01-16T02:25:18.066Z,9.37
2019-01-16T02:28:21.264Z,9.30
2019-01-16T02:31:15.363Z,8.27
2019-01-16T02:34:03.713Z,9.03
2019-01-16T02:36:38.966Z,8.43
2019-01-16T02:39:16.687Z,7.60
2019-01-16T02:41:58.767Z,7.67
2019-01-16T02:44:45.730Z,8.33
2019-01-16T02:47:40.005Z,7.83
2019-01-16T02:50:39.964Z,9.07
2019-01-16T02:53:31.692Z,9.37
2019-01-16T02:56:24.867Z,9.60
2019-01-16T02:59:08.977Z,9.70
2019-01-16T03:01:56.167Z,10.10
2019-01-16T03:04:59.401Z,9.50
2019-01-16T03:07:38.879Z,9.07
2019-01-16T03:10:30.265Z,8.10
2019-01-16T03:13:30.331Z,7.77
2019-01-16T03:16:17.101Z,8.07
2019-01-16T03:19:08.021Z,8.23
2019-01-16T03:21:55.079Z,10.03
2019-01-16T03:24:40.911Z,8.27
2019-01-16T03:27:32.293Z,9.03
2019-01-16T03:30:20.420Z,9.87
2019-01-16T03:33:00.447Z,9.20
2019-01-16T03:35:42.213Z,9.73
2019-01-16T03:38:39.647Z,8.97
2019-01-16T03:41:30.887Z,9.50
2019-01-16T03:44:23.554Z,8.77
2019-01-16T03:47:18.096Z,8.83
2019-01-16T03:50:05.665Z,9.27
2019-01-16T03:52:47.494Z,9.73
2019-01-16T03:55:41.648Z,10.37
2019-01-16T03:58:32.558Z,9.90
2019-01-16T04:01:23.872Z,8.87
2019-01-16T04:04:24.178Z,9.33
2019-01-16T04:07:03.838Z,9.47
2019-01-16T04:10:10.539Z,9.03
2019-01-16T04:13:35.935Z,9.33
2019-01-16T04:16:30.162Z,10.10
2019-01-16T04:19:33.783Z,9.80
2019-01-16T04:22:21.010Z,9.20
2019-01-16T04:25:21.269Z,9.53
2019-01-16T04:28:08.050Z,9.90
2019-01-16T04:31:03.896Z,9.53
2019-01-16T04:33:49.898Z,10.57
2019-01-16T04:36:38.961Z,10.70
2019-01-16T04:39:27.820Z,10.17
2019-01-16T04:42:07.247Z,10.30
2019-01-16T04:44:54.020Z,10.10
2019-01-16T04:47:41.483Z,11.67
2019-01-16T04:50:25.153Z,10.80
2019-01-16T04:53:19.295Z,10.60
2019-01-16T04:56:07.416Z,11.00
2019-01-16T04:58:51.799Z,10.43
2019-01-16T05:01:38.950Z,10.43
2019-01-16T05:04:23.917Z,8.63
2019-01-16T05:07:09.489Z,8.17
2019-01-16T05:10:00.687Z,7.77
2019-01-16T05:12:43.492Z,7.83
2019-01-16T05:15:23.239Z,7.37
2019-01-16T05:18:05.449Z,7.77
2019-01-16T05:20:59.619Z,8.10
2019-01-16T05:23:49.757Z,7.90
2019-01-16T05:26:36.895Z,8.07
2019-01-16T05:29:27.657Z,7.80
2019-01-16T05:32:18.859Z,8.33
2019-01-16T05:35:06.925Z,8.03
2019-01-16T05:37:54.011Z,7.77
2019-01-16T05:40:40.908Z,7.93
2019-01-16T05:43:20.261Z,8.60
2019-01-16T05:46:09.850Z,8.70
2019-01-16T05:48:58.179Z,8.63
2019-01-16T05:51:38.253Z,9.30
2019-01-16T05:54:35.767Z,9.40
2019-01-16T05:57:24.022Z,9.10
2019-01-16T06:00:12.278Z,8.50
2019-01-16T06:03:03.279Z,8.87
2019-01-16T06:06:00.553Z,8.87
2019-01-16T06:08:47.320Z,8.10
2019-01-16T06:11:35.542Z,8.43
2019-01-16T06:14:23.630Z,9.30
2019-01-16T06:17:13.212Z,7.77
2019-01-16T06:20:04.167Z,8.27
2019-01-16T06:22:45.906Z,7.40
2019-01-16T06:25:37.139Z,7.70
2019-01-16T06:28:24.042Z,7.23
2019-01-16T06:31:16.700Z,7.20
2019-01-16T06:33:55.409Z,7.33
2019-01-16T06:36:40.551Z,6.63
2019-01-16T06:39:27.906Z,6.93
2019-01-16T06:42:07.860Z,6.50
2019-01-16T06:44:55.070Z,7.57
2019-01-16T06:47:42.027Z,8.20
2019-01-16T06:50:29.110Z,7.97
2019-01-16T06:53:07.127Z,7.77
2019-01-16T06:55:44.411Z,7.43
2019-01-16T06:58:37.007Z,7.50
2019-01-16T07:01:23.440Z,6.20
2019-01-16T07:04:23.623Z,6.30
2019-01-16T07:07:14.736Z,6.77
2019-01-16T07:10:00.651Z,6.07
2019-01-16T07:12:54.967Z,5.63
2019-01-16T07:15:49.264Z,6.07
2019-01-16T07:18:46.914Z,5.37
2019-01-16T07:21:37.639Z,5.90
2019-01-16T07:24:32.135Z,5.33
2019-01-16T07:27:19.101Z,5.07
2019-01-16T07:29:57.126Z,5.20
2019-01-16T07:32:43.407Z,5.50
2019-01-16T07:35:31.778Z,4.70
2019-01-16T07:38:16.344Z,4.80
2019-01-16T07:41:10.515Z,4.57
2019-01-16T07:43:58.059Z,4.20
2019-01-16T07:46:46.483Z,5.00
2019-01-16T07:49:33.834Z,4.73
2019-01-16T07:52:15.092Z,4.50
2019-01-16T07:55:06.257Z,4.57
2019-01-16T07:58:09.390Z,3.90
2019-01-16T08:01:09.754Z,4.13
2019-01-16T08:04:05.782Z,4.40
2019-01-16T08:07:01.092Z,4.57
2019-01-16T08:09:48.184Z,4.53
2019-01-16T08:12:54.659Z,4.00
2019-01-16T08:15:41.356Z,4.53
2019-01-16T08:18:18.686Z,4.70
2019-01-16T08:21:14.262Z,4.20
2019-01-16T08:24:00.084Z,3.67
2019-01-16T08:26:51.366Z,4.33
2019-01-16T08:29:45.400Z,4.62
2019-01-16T08:32:42.804Z,4.43
2019-01-16T08:35:26.440Z,4.33
2019-01-16T08:38:13.568Z,4.37
2019-01-16T08:41:00.580Z,4.60
2019-01-16T08:43:55.164Z,4.30
2019-01-16T08:46:44.976Z,4.47
2019-01-16T08:49:42.506Z,4.07
2019-01-16T08:52:19.206Z,4.63
2019-01-16T08:55:07.317Z,5.30
2019-01-16T08:58:01.940Z,4.40
2019-01-16T09:00:48.962Z,4.23
2019-01-16T09:03:42.981Z,4.00
2019-01-16T09:06:40.051Z,4.40
2019-01-16T09:09:29.118Z,3.95
2019-01-16T09:12:23.416Z,4.03
2019-01-16T09:15:14.316Z,4.55
2019-01-16T09:17:57.229Z,4.17
2019-01-16T09:21:03.689Z,4.50
2019-01-16T09:23:50.515Z,4.47
2019-01-16T09:26:47.397Z,4.23
2019-01-16T09:29:39.286Z,4.17
2019-01-16T09:32:25.754Z,4.30
2019-01-16T09:35:12.723Z,4.77
2019-01-16T09:38:10.008Z,4.30
2019-01-16T09:40:49.647Z,4.40
2019-01-16T09:43:55.883Z,4.37
2019-01-16T09:47:00.707Z,4.80
2019-01-16T09:49:54.626Z,5.20
2019-01-16T09:52:34.231Z,4.67
2019-01-16T09:55:35.143Z,4.63
2019-01-16T09:58:30.633Z,4.17
2019-01-16T10:01:21.892Z,5.03
2019-01-16T10:04:03.732Z,4.77
2019-01-16T10:06:43.034Z,4.87
2019-01-16T10:09:30.101Z,5.07
2019-01-16T10:12:13.321Z,5.13
2019-01-16T10:14:52.724Z,6.03
2019-01-16T10:17:59.072Z,4.90
2019-01-16T10:20:55.801Z,4.97
2019-01-16T10:23:41.770Z,4.70
2019-01-16T10:26:30.081Z,5.10
2019-01-16T10:29:21.562Z,5.57
2019-01-16T10:32:06.323Z,4.83
2019-01-16T10:35:12.426Z,5.00
2019-01-16T10:38:03.479Z,5.53
2019-01-16T10:40:57.620Z,5.53
2019-01-16T10:43:45.123Z,4.77
2019-01-16T10:46:33.300Z,5.70
2019-01-16T10:49:13.010Z,5.70
2019-01-16T10:51:58.414Z,5.37
2019-01-16T10:54:37.029Z,5.53
2019-01-16T10:57:24.051Z,5.20
2019-01-16T11:00:12.482Z,5.57
2019-01-16T11:02:59.413Z,5.67
2019-01-16T11:05:53.845Z,5.80
2019-01-16T11:08:37.227Z,5.70
2019-01-16T11:11:24.427Z,6.10
2019-01-16T11:14:06.427Z,5.47
2019-01-16T11:17:03.774Z,5.87
2019-01-16T11:19:54.931Z,6.20
2019-01-16T11:22:41.599Z,5.77
2019-01-16T11:25:32.577Z,6.27
2019-01-16T11:28:20.914Z,7.23
2019-01-16T11:31:04.266Z,6.40
2019-01-16T11:33:51.593Z,6.53
2019-01-16T11:36:38.581Z,6.60
2019-01-16T11:39:25.749Z,6.10
2019-01-16T11:42:29.038Z,5.77
2019-01-16T11:45:07.487Z,6.00
2019-01-16T11:48:04.662Z,6.37
2019-01-16T11:50:59.469Z,6.23
2019-01-16T11:53:46.258Z,7.23
2019-01-16T11:56:35.365Z,6.50
2019-01-16T11:59:24.702Z,6.90
2019-01-16T12:02:12.898Z,7.13
2019-01-16T12:05:12.452Z,6.93
2019-01-16T12:08:00.410Z,6.83
2019-01-16T12:10:44.442Z,6.60
2019-01-16T12:13:32.882Z,7.43
2019-01-16T12:16:10.232Z,6.70
2019-01-16T12:18:53.458Z,6.97
2019-01-16T12:21:40.026Z,6.77
2019-01-16T12:24:22.314Z,6.43
2019-01-16T12:27:09.474Z,6.60
2019-01-16T12:30:06.934Z,7.43
2019-01-16T12:33:01.131Z,7.73
2019-01-16T12:35:38.907Z,6.47
2019-01-16T12:38:25.832Z,6.70
2019-01-16T12:41:02.422Z,6.57
2019-01-16T12:43:53.362Z,7.37
2019-01-16T12:46:53.529Z,6.60
2019-01-16T12:49:41.656Z,6.40
2019-01-16T12:52:57.516Z,7.17
2019-01-16T12:55:44.488Z,6.90
2019-01-16T12:58:41.910Z,6.97
2019-01-16T13:01:33.187Z,6.97
2019-01-16T13:04:21.488Z,7.40
2019-01-16T13:07:27.815Z,7.27
2019-01-16T13:10:23.752Z,6.20
2019-01-16T13:13:17.995Z,7.70
2019-01-16T13:16:05.607Z,7.57
2019-01-16T13:19:08.857Z,7.23
2019-01-16T13:21:57.141Z,6.67
2019-01-16T13:24:42.243Z,6.87
2019-01-16T13:27:29.280Z,7.70
2019-01-16T13:30:08.725Z,7.60
2019-01-16T13:33:07.160Z,7.10
2019-01-16T13:35:54.095Z,7.30
2019-01-16T13:38:35.468Z,7.53
2019-01-16T13:41:39.190Z,7.13
2019-01-16T13:44:19.199Z,7.03
2019-01-16T13:47:06.099Z,7.60
2019-01-16T13:50:09.725Z,7.77
2019-01-16T13:52:56.583Z,7.13
2019-01-16T13:55:38.832Z,6.87
2019-01-16T13:58:28.177Z,7.33
2019-01-16T14:01:24.588Z,8.00
2019-01-16T14:04:11.872Z,7.40
2019-01-16T14:07:03.436Z,7.43
2019-01-16T14:10:24.140Z,7.27
2019-01-16T14:13:18.786Z,7.67
2019-01-16T14:15:58.360Z,7.90
2019-01-16T14:18:34.998Z,7.77
2019-01-16T14:21:23.277Z,8.23
2019-01-16T14:24:07.199Z,7.90
2019-01-16T14:27:10.620Z,7.93
2019-01-16T14:29:47.870Z,8.30
2019-01-16T14:32:34.592Z,8.23
2019-01-16T14:35:41.362Z,8.20
2019-01-16T14:38:32.218Z,8.50
2019-01-16T14:41:19.298Z,7.73
2019-01-16T14:44:06.823Z,7.83
2019-01-16T14:46:49.214Z,8.90
2019-01-16T14:49:40.597Z,7.67
2019-01-16T14:52:26.113Z,7.97
2019-01-16T14:55:14.229Z,7.27
2019-01-16T14:58:01.390Z,7.13
2019-01-16T15:00:54.980Z,6.60
2019-01-16T15:03:49.400Z,6.67
2019-01-16T15:06:37.930Z,7.10
2019-01-16T15:09:33.608Z,7.20
2019-01-16T15:12:21.734Z,6.87
2019-01-16T15:15:09.285Z,7.00
2019-01-16T15:17:57.629Z,7.70
2019-01-16T15:20:46.787Z,8.03
2019-01-16T15:23:38.730Z,7.33
2019-01-16T15:26:30.029Z,7.73
2019-01-16T15:29:24.223Z,7.03
2019-01-16T15:32:11.851Z,7.08
2019-01-16T15:35:01.895Z,7.00
2019-01-16T15:37:44.335Z,7.37
2019-01-16T15:40:26.907Z,6.30
2019-01-16T15:43:04.753Z,7.10
2019-01-16T15:46:02.245Z,6.30
2019-01-16T15:48:55.163Z,6.20
2019-01-16T15:51:53.146Z,6.23
2019-01-16T15:54:44.257Z,6.20
2019-01-16T15:57:31.059Z,6.77
2019-01-16T16:00:28.372Z,8.30
2019-01-16T16:03:05.079Z,7.70
2019-01-16T16:05:53.648Z,5.57
2019-01-16T16:08:53.836Z,5.33
2019-01-16T16:11:41.696Z,6.07
2019-01-16T16:14:28.898Z,5.20
2019-01-16T16:17:16.447Z,4.93
2019-01-16T16:20:16.819Z,5.17
2019-01-16T16:23:03.890Z,5.33
2019-01-16T16:26:01.274Z,5.80
2019-01-16T16:29:01.986Z,5.40
2019-01-16T16:31:41.250Z,5.90
2019-01-16T16:34:28.242Z,5.40
2019-01-16T16:37:15.410Z,5.87
2019-01-16T16:40:06.674Z,5.47
2019-01-16T16:42:47.166Z,6.00
2019-01-16T16:45:36.910Z,5.60
2019-01-16T16:48:23.938Z,5.83
2019-01-16T16:51:10.984Z,6.10
2019-01-16T16:53:59.094Z,6.23
2019-01-16T16:56:43.362Z,5.97
2019-01-16T16:59:31.485Z,5.37
2019-01-16T17:02:18.895Z,5.83
2019-01-16T17:05:05.910Z,5.57
2019-01-16T17:07:52.682Z,6.00
2019-01-16T17:10:43.845Z,6.00
2019-01-16T17:13:56.354Z,6.80
2019-01-16T17:16:43.661Z,6.67
2019-01-16T17:19:44.204Z,6.33
2019-01-16T17:22:21.812Z,6.83
2019-01-16T17:25:08.919Z,7.43
2019-01-16T17:28:03.279Z,6.73
2019-01-16T17:30:50.226Z,7.17
2019-01-16T17:33:37.151Z,7.63
2019-01-16T17:36:42.881Z,7.53
2019-01-16T17:39:30.225Z,7.10
2019-01-16T17:42:27.487Z,6.70
2019-01-16T17:45:11.907Z,7.20
2019-01-16T17:47:57.285Z,7.23
2019-01-16T17:50:44.241Z,7.60
2019-01-16T17:53:47.855Z,8.07
2019-01-16T17:56:45.264Z,6.60
2019-01-16T17:59:32.191Z,7.53
2019-01-16T18:02:21.470Z,6.90
2019-01-16T18:05:21.892Z,6.80
2019-01-16T18:08:12.093Z,6.77
2019-01-16T18:11:03.143Z,6.67
2019-01-16T18:13:49.898Z,6.90
2019-01-16T18:16:56.782Z,8.03
2019-01-16T18:19:49.182Z,7.03
2019-01-16T18:22:34.323Z,7.37
2019-01-16T18:25:17.634Z,7.33
2019-01-16T18:28:05.796Z,7.70
2019-01-16T18:30:54.126Z,7.97
2019-01-16T18:33:41.130Z,7.47
2019-01-16T18:36:35.412Z,7.83
2019-01-16T18:39:26.933Z,7.00
2019-01-16T18:42:21.228Z,7.17
2019-01-16T18:44:59.305Z,7.17
2019-01-16T18:47:46.145Z,7.00
2019-01-16T18:50:33.080Z,7.50
2019-01-16T18:53:19.719Z,7.83
2019-01-16T18:56:13.325Z,7.20
2019-01-16T18:59:00.464Z,7.43
2019-01-16T19:01:48.849Z,7.13
2019-01-16T19:04:48.334Z,7.17
2019-01-16T19:07:35.503Z,7.37
2019-01-16T19:10:24.403Z,7.63
2019-01-16T19:13:30.849Z,6.93
2019-01-16T19:16:28.085Z,7.57
2019-01-16T19:19:09.697Z,7.73
2019-01-16T19:22:00.842Z,7.97
2019-01-16T19:24:52.335Z,7.60
2019-01-16T19:27:47.239Z,8.40
2019-01-16T19:30:27.785Z,8.43
2019-01-16T19:33:07.161Z,7.67
2019-01-16T19:35:58.857Z,8.53
2019-01-16T19:38:53.053Z,7.60
2019-01-16T19:41:40.366Z,8.57
2019-01-16T19:44:27.255Z,8.73
2019-01-16T19:47:18.993Z,8.43
2019-01-16T19:50:06.131Z,7.33
2019-01-16T19:52:52.611Z,7.53
2019-01-16T19:55:46.763Z,7.97
2019-01-16T19:58:37.605Z,7.60
2019-01-16T20:01:27.824Z,8.63
2019-01-16T20:04:19.618Z,7.77
2019-01-16T20:07:00.603Z,7.63
2019-01-16T20:09:44.857Z,7.87
2019-01-16T20:12:20.456Z,7.73
2019-01-16T20:15:07.613Z,7.63
2019-01-16T20:17:57.611Z,7.80
2019-01-16T20:20:52.082Z,7.60
2019-01-16T20:23:55.560Z,7.50
2019-01-16T20:26:51.007Z,7.57
2019-01-16T20:29:37.714Z,6.97
2019-01-16T20:32:23.572Z,7.70
2019-01-16T20:35:09.646Z,7.00
2019-01-16T20:37:52.717Z,7.40
2019-01-16T20:40:41.710Z,6.70
2019-01-16T20:43:28.490Z,7.40
2019-01-16T20:46:15.480Z,7.17
2019-01-16T20:49:15.840Z,7.97
2019-01-16T20:52:02.988Z,7.17
2019-01-16T20:54:54.362Z,7.60
2019-01-16T20:57:42.500Z,7.37
2019-01-16T21:00:34.778Z,8.30
2019-01-16T21:03:28.828Z,9.33
2019-01-16T21:06:27.312Z,9.40
2019-01-16T21:09:13.874Z,9.17
2019-01-16T21:12:02.366Z,8.83
2019-01-16T21:14:46.029Z,8.30
2019-01-16T21:17:25.871Z,7.83
2019-01-16T21:20:16.762Z,7.13
2019-01-16T21:22:59.670Z,6.20
2019-01-16T21:26:01.915Z,4.87
2019-01-16T21:28:44.155Z,4.90
2019-01-16T21:31:28.766Z,2.13
2019-01-16T21:34:21.878Z,1.00
2019-01-16T21:37:09.097Z,1.40
2019-01-16T21:40:00.851Z,1.17
2019-01-16T21:42:52.881Z,1.67
2019-01-16T21:45:39.981Z,1.27
2019-01-16T21:48:29.758Z,1.43
2019-01-16T21:51:24.235Z,1.17
2019-01-16T21:54:02.997Z,1.27
2019-01-16T21:57:01.757Z,0.50
2019-01-16T21:59:48.666Z,0.50
2019-01-16T22:02:32.601Z,0.50
2019-01-16T22:05:12.996Z,0.60
2019-01-16T22:07:49.845Z,0.67
2019-01-16T22:10:36.568Z,1.57
2019-01-16T22:13:34.027Z,1.60
2019-01-16T22:16:22.153Z,0.80
2019-01-16T22:19:04.204Z,0.70
2019-01-16T22:21:57.596Z,0.50
2019-01-16T22:24:40.485Z,0.60
2019-01-16T22:27:28.683Z,0.40
2019-01-16T22:30:23.076Z,0.47
2019-01-16T22:33:10.570Z,0.73
2019-01-16T22:36:01.521Z,0.80
2019-01-16T22:38:58.987Z,0.77
2019-01-16T22:41:47.410Z,0.90
2019-01-16T22:44:47.854Z,0.70
2019-01-16T22:47:36.166Z,1.10
2019-01-16T22:50:23.724Z,0.70
2019-01-16T22:53:19.952Z,0.73
2019-01-16T22:56:07.281Z,0.90
2019-01-16T22:59:08.726Z,0.83
2019-01-16T23:01:55.712Z,0.70
2019-01-16T23:04:41.928Z,0.60
2019-01-16T23:07:18.900Z,0.60
2019-01-16T23:09:59.271Z,0.90
2019-01-16T23:13:01.255Z,0.60
2019-01-16T23:16:04.749Z,1.40
2019-01-16T23:18:41.948Z,0.70
2019-01-16T23:21:28.739Z,0.70
2019-01-16T23:24:16.855Z,0.80
2019-01-16T23:26:52.939Z,0.70
2019-01-16T23:29:50.451Z,0.97
2019-01-16T23:32:42.435Z,0.80
2019-01-16T23:35:42.857Z,0.90
2019-01-16T23:38:49.381Z,0.93
2019-01-16T23:41:36.297Z,0.83
2019-01-16T23:44:24.588Z,0.90
2019-01-16T23:47:11.629Z,0.50
2019-01-16T23:50:12.163Z,0.80
2019-01-16T23:53:18.392Z,0.70
2019-01-16T23:56:04.506Z,0.73
2019-01-16T23:58:52.637Z,0.60
